sensor_id;sensor_type;location;lat;lon;timestamp;pressure;altitude;pressure_sealevel;temperature;humidity
8653;BME280;4364;52.426;9.424;2023-03-21T00:00:28;101146.97;;;7.15;100.00
8653;BME280;4364;52.426;9.424;2023-03-21T00:02:54;101141.81;;;7.14;100.00
8653;BME280;4364;52.426;9.424;2023-03-21T00:05:21;101147.47;;;7.12;100.00
8653;BME280;4364;52.426;9.424;2023-03-21T00:07:47;101139.00;;;7.09;100.00
8653;BME280;4364;52.426;9.424;2023-03-21T00:10:14;101133.47;;;7.15;100.00
8653;BME280;4364;52.426;9.424;2023-03-21T00:12:55;101133.38;;;7.10;100.00
8653;BME280;4364;52.426;9.424;2023-03-21T00:15:24;101137.53;;;7.18;100.00
8653;BME280;4364;52.426;9.424;2023-03-21T00:18:09;101139.81;;;7.09;100.00
8653;BME280;4364;52.426;9.424;2023-03-21T00:20:37;101135.31;;;7.15;100.00
8653;BME280;4364;52.426;9.424;2023-03-21T00:23:03;101135.84;;;7.12;100.00
8653;BME280;4364;52.426;9.424;2023-03-21T00:25:30;101132.53;;;7.10;100.00
8653;BME280;4364;52.426;9.424;2023-03-21T00:27:58;101122.78;;;7.09;100.00
8653;BME280;4364;52.426;9.424;2023-03-21T00:30:34;101130.59;;;7.22;100.00
8653;BME280;4364;52.426;9.424;2023-03-21T00:33:02;101114.84;;;7.19;100.00
8653;BME280;4364;52.426;9.424;2023-03-21T00:35:50;101121.56;;;7.16;100.00
8653;BME280;4364;52.426;9.424;2023-03-21T00:38:32;101117.53;;;7.02;100.00
8653;BME280;4364;52.426;9.424;2023-03-21T00:41:02;101114.50;;;6.98;100.00
8653;BME280;4364;52.426;9.424;2023-03-21T00:43:42;101115.06;;;7.00;100.00
8653;BME280;4364;52.426;9.424;2023-03-21T00:46:09;101108.78;;;7.12;100.00
8653;BME280;4364;52.426;9.424;2023-03-21T00:48:38;101115.41;;;7.04;100.00
8653;BME280;4364;52.426;9.424;2023-03-21T00:51:11;101109.66;;;7.00;100.00
8653;BME280;4364;52.426;9.424;2023-03-21T00:53:41;101103.53;;;7.05;100.00
8653;BME280;4364;52.426;9.424;2023-03-21T00:56:08;101105.47;;;7.10;100.00
8653;BME280;4364;52.426;9.424;2023-03-21T00:58:35;101106.81;;;7.07;100.00
8653;BME280;4364;52.426;9.424;2023-03-21T01:01:01;101100.69;;;7.12;100.00
8653;BME280;4364;52.426;9.424;2023-03-21T01:03:29;101099.03;;;7.11;100.00
8653;BME280;4364;52.426;9.424;2023-03-21T01:05:56;101095.84;;;7.14;100.00
8653;BME280;4364;52.426;9.424;2023-03-21T01:08:35;101096.72;;;7.19;100.00
8653;BME280;4364;52.426;9.424;2023-03-21T01:11:24;101103.38;;;7.12;100.00
8653;BME280;4364;52.426;9.424;2023-03-21T01:13:51;101098.88;;;7.17;100.00
8653;BME280;4364;52.426;9.424;2023-03-21T01:16:30;101095.19;;;7.23;100.00
8653;BME280;4364;52.426;9.424;2023-03-21T01:18:56;101099.84;;;7.11;100.00
8653;BME280;4364;52.426;9.424;2023-03-21T01:21:23;101087.88;;;7.07;100.00
8653;BME280;4364;52.426;9.424;2023-03-21T01:23:50;101084.78;;;7.15;100.00
8653;BME280;4364;52.426;9.424;2023-03-21T01:26:17;101091.56;;;7.18;100.00
8653;BME280;4364;52.426;9.424;2023-03-21T01:28:44;101088.03;;;7.17;100.00
8653;BME280;4364;52.426;9.424;2023-03-21T01:31:13;101080.00;;;7.22;100.00
8653;BME280;4364;52.426;9.424;2023-03-21T01:33:41;101083.03;;;7.26;100.00
8653;BME280;4364;52.426;9.424;2023-03-21T01:36:14;101085.75;;;7.26;100.00
8653;BME280;4364;52.426;9.424;2023-03-21T01:38:42;101088.28;;;7.33;100.00
8653;BME280;4364;52.426;9.424;2023-03-21T01:41:30;101079.22;;;7.22;100.00
8653;BME280;4364;52.426;9.424;2023-03-21T01:44:24;101075.50;;;7.28;100.00
8653;BME280;4364;52.426;9.424;2023-03-21T01:46:51;101080.34;;;7.26;100.00
8653;BME280;4364;52.426;9.424;2023-03-21T01:50:01;101078.81;;;7.30;100.00
8653;BME280;4364;52.426;9.424;2023-03-21T01:52:37;101077.78;;;7.36;100.00
8653;BME280;4364;52.426;9.424;2023-03-21T01:55:17;101075.00;;;7.31;100.00
8653;BME280;4364;52.426;9.424;2023-03-21T01:58:10;101067.53;;;7.21;100.00
8653;BME280;4364;52.426;9.424;2023-03-21T02:00:55;101075.00;;;7.31;100.00
8653;BME280;4364;52.426;9.424;2023-03-21T02:03:54;101073.56;;;7.40;100.00
8653;BME280;4364;52.426;9.424;2023-03-21T02:06:48;101075.84;;;7.32;100.00
8653;BME280;4364;52.426;9.424;2023-03-21T02:09:33;101068.31;;;7.34;100.00
8653;BME280;4364;52.426;9.424;2023-03-21T02:12:02;101077.00;;;7.36;100.00
8653;BME280;4364;52.426;9.424;2023-03-21T02:14:32;101058.38;;;7.39;100.00
8653;BME280;4364;52.426;9.424;2023-03-21T02:23:13;101055.50;;;7.46;100.00
8653;BME280;4364;52.426;9.424;2023-03-21T02:28:27;101045.00;;;7.50;100.00
8653;BME280;4364;52.426;9.424;2023-03-21T02:37:11;101040.00;;;7.41;100.00
8653;BME280;4364;52.426;9.424;2023-03-21T02:39:27;101031.63;;;7.43;100.00
8653;BME280;4364;52.426;9.424;2023-03-21T02:42:01;101039.34;;;7.51;100.00
8653;BME280;4364;52.426;9.424;2023-03-21T02:44:45;101030.25;;;7.40;100.00
8653;BME280;4364;52.426;9.424;2023-03-21T02:49:50;101028.75;;;7.50;100.00
8653;BME280;4364;52.426;9.424;2023-03-21T02:52:23;101026.06;;;7.50;100.00
8653;BME280;4364;52.426;9.424;2023-03-21T02:55:10;101031.47;;;7.50;100.00
8653;BME280;4364;52.426;9.424;2023-03-21T02:57:48;101029.34;;;7.52;100.00
8653;BME280;4364;52.426;9.424;2023-03-21T03:00:18;101029.75;;;7.60;100.00
8653;BME280;4364;52.426;9.424;2023-03-21T03:02:47;101031.47;;;7.50;100.00
8653;BME280;4364;52.426;9.424;2023-03-21T03:05:35;101032.44;;;7.60;100.00
8653;BME280;4364;52.426;9.424;2023-03-21T03:08:22;101024.31;;;7.60;100.00
8653;BME280;4364;52.426;9.424;2023-03-21T03:11:23;101025.56;;;7.53;100.00
8653;BME280;4364;52.426;9.424;2023-03-21T03:19:43;101016.47;;;7.59;100.00
8653;BME280;4364;52.426;9.424;2023-03-21T03:22:29;101016.13;;;7.55;100.00
8653;BME280;4364;52.426;9.424;2023-03-21T03:25:08;101020.88;;;7.65;100.00
8653;BME280;4364;52.426;9.424;2023-03-21T03:27:55;101009.72;;;7.61;100.00
8653;BME280;4364;52.426;9.424;2023-03-21T03:30:24;101011.75;;;7.71;100.00
8653;BME280;4364;52.426;9.424;2023-03-21T03:33:07;101007.59;;;7.64;100.00
8653;BME280;4364;52.426;9.424;2023-03-21T03:35:36;101012.75;;;7.65;100.00
8653;BME280;4364;52.426;9.424;2023-03-21T03:38:05;101007.84;;;7.62;100.00
8653;BME280;4364;52.426;9.424;2023-03-21T03:40:39;101007.53;;;7.58;100.00
8653;BME280;4364;52.426;9.424;2023-03-21T03:43:21;101012.41;;;7.61;100.00
8653;BME280;4364;52.426;9.424;2023-03-21T03:45:57;101004.53;;;7.60;100.00
8653;BME280;4364;52.426;9.424;2023-03-21T03:48:28;101001.03;;;7.59;100.00
8653;BME280;4364;52.426;9.424;2023-03-21T03:51:09;101005.31;;;7.55;100.00
8653;BME280;4364;52.426;9.424;2023-03-21T03:54:25;101002.84;;;7.54;100.00
8653;BME280;4364;52.426;9.424;2023-03-21T03:56:54;101007.84;;;7.62;100.00
8653;BME280;4364;52.426;9.424;2023-03-21T03:59:21;101009.41;;;7.58;100.00
8653;BME280;4364;52.426;9.424;2023-03-21T04:02:02;100999.47;;;7.64;100.00
8653;BME280;4364;52.426;9.424;2023-03-21T04:04:30;101007.19;;;7.55;100.00
8653;BME280;4364;52.426;9.424;2023-03-21T04:06:57;100999.59;;;7.52;100.00
8653;BME280;4364;52.426;9.424;2023-03-21T04:09:25;101001.84;;;7.60;100.00
8653;BME280;4364;52.426;9.424;2023-03-21T04:12:10;101005.88;;;7.57;100.00
8653;BME280;4364;52.426;9.424;2023-03-21T04:14:40;101002.75;;;7.66;100.00
8653;BME280;4364;52.426;9.424;2023-03-21T04:17:15;101010.97;;;7.54;100.00
8653;BME280;4364;52.426;9.424;2023-03-21T04:19:42;101006.75;;;7.63;100.00
8653;BME280;4364;52.426;9.424;2023-03-21T04:22:08;100996.19;;;7.61;100.00
8653;BME280;4364;52.426;9.424;2023-03-21T04:24:38;100998.03;;;7.78;100.00
8653;BME280;4364;52.426;9.424;2023-03-21T04:27:05;100996.19;;;7.61;100.00
8653;BME280;4364;52.426;9.424;2023-03-21T04:29:39;100996.34;;;7.55;100.00
8653;BME280;4364;52.426;9.424;2023-03-21T04:32:26;100991.19;;;7.70;100.00
8653;BME280;4364;52.426;9.424;2023-03-21T04:35:08;101000.72;;;7.56;100.00
8653;BME280;4364;52.426;9.424;2023-03-21T04:37:36;101000.16;;;7.54;100.00
8653;BME280;4364;52.426;9.424;2023-03-21T04:40:06;101004.47;;;7.55;100.00
8653;BME280;4364;52.426;9.424;2023-03-21T04:42:34;100999.97;;;7.60;100.00
8653;BME280;4364;52.426;9.424;2023-03-21T04:45:01;100997.19;;;7.55;100.00
8653;BME280;4364;52.426;9.424;2023-03-21T04:47:28;100985.78;;;7.53;100.00
8653;BME280;4364;52.426;9.424;2023-03-21T04:49:54;100987.25;;;7.61;100.00
8653;BME280;4364;52.426;9.424;2023-03-21T04:52:23;100983.06;;;7.70;100.00
8653;BME280;4364;52.426;9.424;2023-03-21T04:54:50;100980.53;;;7.86;100.00
8653;BME280;4364;52.426;9.424;2023-03-21T04:57:17;100984.75;;;7.76;100.00
8653;BME280;4364;52.426;9.424;2023-03-21T04:59:44;100976.63;;;7.76;100.00
8653;BME280;4364;52.426;9.424;2023-03-21T05:02:11;100987.13;;;7.73;100.00
8653;BME280;4364;52.426;9.424;2023-03-21T05:04:38;100980.59;;;7.69;100.00
8653;BME280;4364;52.426;9.424;2023-03-21T05:07:05;100976.56;;;7.71;100.00
8653;BME280;4364;52.426;9.424;2023-03-21T05:09:32;100982.28;;;7.75;100.00
8653;BME280;4364;52.426;9.424;2023-03-21T05:11:58;100971.88;;;7.67;100.00
8653;BME280;4364;52.426;9.424;2023-03-21T05:14:26;100979.19;;;7.66;100.00
8653;BME280;4364;52.426;9.424;2023-03-21T05:16:54;100974.03;;;7.65;100.00
8653;BME280;4364;52.426;9.424;2023-03-21T05:19:28;100976.56;;;7.71;100.00
8653;BME280;4364;52.426;9.424;2023-03-21T05:22:06;100985.81;;;7.75;100.00
8653;BME280;4364;52.426;9.424;2023-03-21T05:24:34;100981.72;;;7.73;100.00
8653;BME280;4364;52.426;9.424;2023-03-21T05:27:04;100976.94;;;7.80;100.00
8653;BME280;4364;52.426;9.424;2023-03-21T05:29:38;100981.78;;;7.78;100.00
8653;BME280;4364;52.426;9.424;2023-03-21T05:32:06;100979.91;;;7.78;100.00
8653;BME280;4364;52.426;9.424;2023-03-21T05:34:33;100974.16;;;7.75;100.00
8653;BME280;4364;52.426;9.424;2023-03-21T05:37:01;100975.00;;;7.75;100.00
8653;BME280;4364;52.426;9.424;2023-03-21T05:39:46;100976.31;;;7.73;100.00
8653;BME280;4364;52.426;9.424;2023-03-21T05:42:20;100975.81;;;7.76;100.00
8653;BME280;4364;52.426;9.424;2023-03-21T05:44:47;100980.91;;;7.72;100.00
8653;BME280;4364;52.426;9.424;2023-03-21T05:47:16;100972.66;;;7.84;100.00
8653;BME280;4364;52.426;9.424;2023-03-21T05:49:45;100980.78;;;7.84;100.00
8653;BME280;4364;52.426;9.424;2023-03-21T05:52:13;100976.75;;;7.87;100.00
8653;BME280;4364;52.426;9.424;2023-03-21T05:54:40;100973.41;;;7.79;100.00
8653;BME280;4364;52.426;9.424;2023-03-21T05:57:08;100981.91;;;7.88;100.00
8653;BME280;4364;52.426;9.424;2023-03-21T05:59:53;100981.34;;;7.86;100.00
8653;BME280;4364;52.426;9.424;2023-03-21T06:02:20;100981.84;;;7.83;100.00
8653;BME280;4364;52.426;9.424;2023-03-21T06:04:48;100981.34;;;7.86;100.00
8653;BME280;4364;52.426;9.424;2023-03-21T06:07:18;100975.44;;;7.89;100.00
8653;BME280;4364;52.426;9.424;2023-03-21T06:09:45;100981.91;;;7.88;100.00
8653;BME280;4364;52.426;9.424;2023-03-21T06:12:12;100983.31;;;7.91;100.00
8653;BME280;4364;52.426;9.424;2023-03-21T06:14:58;100982.50;;;7.90;100.00
8653;BME280;4364;52.426;9.424;2023-03-21T06:17:31;100983.13;;;7.97;100.00
8653;BME280;4364;52.426;9.424;2023-03-21T06:20:04;100984.38;;;7.90;100.00
8653;BME280;4364;52.426;9.424;2023-03-21T06:22:38;100985.50;;;7.94;100.00
8653;BME280;4364;52.426;9.424;2023-03-21T06:25:05;100988.22;;;7.94;100.00
8653;BME280;4364;52.426;9.424;2023-03-21T06:27:35;100991.50;;;7.96;100.00
8653;BME280;4364;52.426;9.424;2023-03-21T06:30:04;100981.53;;;8.02;100.00
8653;BME280;4364;52.426;9.424;2023-03-21T06:32:37;100983.94;;;7.98;100.00
8653;BME280;4364;52.426;9.424;2023-03-21T06:35:08;100983.63;;;7.94;100.00
8653;BME280;4364;52.426;9.424;2023-03-21T06:37:36;100983.31;;;7.91;100.00
8653;BME280;4364;52.426;9.424;2023-03-21T06:40:04;100986.56;;;7.93;100.00
8653;BME280;4364;52.426;9.424;2023-03-21T06:42:32;100981.88;;;8.05;100.00
8653;BME280;4364;52.426;9.424;2023-03-21T06:45:05;100987.84;;;8.07;100.00
8653;BME280;4364;52.426;9.424;2023-03-21T06:47:32;100995.53;;;8.15;100.00
8653;BME280;4364;52.426;9.424;2023-03-21T06:50:03;100992.56;;;8.17;100.00
8653;BME280;4364;52.426;9.424;2023-03-21T06:52:38;100988.63;;;8.30;100.00
8653;BME280;4364;52.426;9.424;2023-03-21T06:55:05;100989.66;;;8.24;100.00
8653;BME280;4364;52.426;9.424;2023-03-21T06:57:32;100991.28;;;8.25;100.00
8653;BME280;4364;52.426;9.424;2023-03-21T06:59:58;100995.56;;;8.43;100.00
8653;BME280;4364;52.426;9.424;2023-03-21T07:02:26;100988.16;;;8.38;100.00
8653;BME280;4364;52.426;9.424;2023-03-21T07:05:00;100988.41;;;8.37;100.00
8653;BME280;4364;52.426;9.424;2023-03-21T07:07:28;100989.00;;;8.39;100.00
8653;BME280;4364;52.426;9.424;2023-03-21T07:09:55;100987.66;;;8.41;100.00
8653;BME280;4364;52.426;9.424;2023-03-21T07:12:22;100981.34;;;8.58;100.00
8653;BME280;4364;52.426;9.424;2023-03-21T07:15:10;100987.31;;;8.60;100.00
8653;BME280;4364;52.426;9.424;2023-03-21T07:17:38;100989.28;;;8.64;100.00
8653;BME280;4364;52.426;9.424;2023-03-21T07:20:05;100992.28;;;8.68;100.00
8653;BME280;4364;52.426;9.424;2023-03-21T07:22:34;100988.41;;;8.59;100.00
8653;BME280;4364;52.426;9.424;2023-03-21T07:25:01;100988.25;;;8.70;100.00
8653;BME280;4364;52.426;9.424;2023-03-21T07:27:36;100996.94;;;8.73;100.00
8653;BME280;4364;52.426;9.424;2023-03-21T07:30:07;100993.44;;;8.72;100.00
8653;BME280;4364;52.426;9.424;2023-03-21T07:32:34;100987.00;;;8.83;100.00
8653;BME280;4364;52.426;9.424;2023-03-21T07:35:05;100985.38;;;8.82;99.74
8653;BME280;4364;52.426;9.424;2023-03-21T07:37:32;100986.75;;;8.85;99.81
8653;BME280;4364;52.426;9.424;2023-03-21T07:39:58;100984.88;;;8.85;100.00
8653;BME280;4364;52.426;9.424;2023-03-21T07:42:26;100982.44;;;8.89;100.00
8653;BME280;4364;52.426;9.424;2023-03-21T07:44:58;100983.22;;;8.84;99.68
8653;BME280;4364;52.426;9.424;2023-03-21T07:47:31;100982.44;;;8.89;99.39
8653;BME280;4364;52.426;9.424;2023-03-21T07:49:57;100980.84;;;8.93;99.54
8653;BME280;4364;52.426;9.424;2023-03-21T07:52:24;100977.63;;;8.96;99.41
8653;BME280;4364;52.426;9.424;2023-03-21T07:54:51;100974.94;;;9.01;98.93
8653;BME280;4364;52.426;9.424;2023-03-21T07:57:17;100979.25;;;8.97;99.31
8653;BME280;4364;52.426;9.424;2023-03-21T07:59:44;100980.19;;;9.13;98.65
8653;BME280;4364;52.426;9.424;2023-03-21T08:02:15;100983.16;;;9.12;98.27
8653;BME280;4364;52.426;9.424;2023-03-21T08:04:43;100983.66;;;9.08;96.86
8653;BME280;4364;52.426;9.424;2023-03-21T08:07:10;100988.53;;;9.06;97.74
8653;BME280;4364;52.426;9.424;2023-03-21T08:09:37;100983.94;;;9.07;96.66
8653;BME280;4364;52.426;9.424;2023-03-21T08:12:04;100977.72;;;9.12;96.90
8653;BME280;4364;52.426;9.424;2023-03-21T08:14:31;100985.28;;;9.04;97.48
8653;BME280;4364;52.426;9.424;2023-03-21T08:16:58;100971.31;;;9.23;96.71
8653;BME280;4364;52.426;9.424;2023-03-21T08:19:25;100981.91;;;9.24;96.71
8653;BME280;4364;52.426;9.424;2023-03-21T08:21:52;100983.53;;;9.25;95.22
8653;BME280;4364;52.426;9.424;2023-03-21T08:24:18;100977.03;;;9.26;95.77
8653;BME280;4364;52.426;9.424;2023-03-21T08:26:45;100977.56;;;9.28;95.31
8653;BME280;4364;52.426;9.424;2023-03-21T08:29:12;100979.25;;;9.35;94.81
8653;BME280;4364;52.426;9.424;2023-03-21T08:31:39;100981.72;;;9.41;95.23
8653;BME280;4364;52.426;9.424;2023-03-21T08:34:07;100983.38;;;9.42;94.94
8653;BME280;4364;52.426;9.424;2023-03-21T08:36:35;100979.34;;;9.55;95.39
8653;BME280;4364;52.426;9.424;2023-03-21T08:39:03;100977.50;;;9.61;94.57
8653;BME280;4364;52.426;9.424;2023-03-21T08:41:34;100984.03;;;9.65;93.68
8653;BME280;4364;52.426;9.424;2023-03-21T08:44:02;100973.72;;;9.67;94.19
8653;BME280;4364;52.426;9.424;2023-03-21T08:46:28;100982.75;;;9.78;93.33
8653;BME280;4364;52.426;9.424;2023-03-21T08:48:55;100980.34;;;9.87;93.23
8653;BME280;4364;52.426;9.424;2023-03-21T08:51:21;100985.56;;;10.04;91.71
8653;BME280;4364;52.426;9.424;2023-03-21T08:53:48;100985.59;;;10.14;91.20
8653;BME280;4364;52.426;9.424;2023-03-21T08:56:17;100984.50;;;10.10;91.99
8653;BME280;4364;52.426;9.424;2023-03-21T08:58:44;100986.44;;;10.19;90.56
8653;BME280;4364;52.426;9.424;2023-03-21T09:01:10;100981.53;;;10.16;90.80
8653;BME280;4364;52.426;9.424;2023-03-21T09:03:41;100981.28;;;10.18;89.99
8653;BME280;4364;52.426;9.424;2023-03-21T09:06:09;100978.25;;;10.04;90.88
8653;BME280;4364;52.426;9.424;2023-03-21T09:08:37;100974.78;;;10.24;90.11
8653;BME280;4364;52.426;9.424;2023-03-21T09:11:04;100982.09;;;10.29;88.74
8653;BME280;4364;52.426;9.424;2023-03-21T09:13:31;100984.59;;;10.41;89.39
8653;BME280;4364;52.426;9.424;2023-03-21T09:15:57;100983.00;;;10.40;89.51
8653;BME280;4364;52.426;9.424;2023-03-21T09:18:29;100985.44;;;10.36;89.53
8653;BME280;4364;52.426;9.424;2023-03-21T09:21:15;100977.28;;;10.36;89.88
8653;BME280;4364;52.426;9.424;2023-03-21T09:23:43;100986.72;;;10.28;91.15
8653;BME280;4364;52.426;9.424;2023-03-21T09:26:15;100985.38;;;10.26;92.22
8653;BME280;4364;52.426;9.424;2023-03-21T09:28:43;100985.97;;;10.33;91.26
8653;BME280;4364;52.426;9.424;2023-03-21T09:31:12;100978.63;;;10.33;91.65
8653;BME280;4364;52.426;9.424;2023-03-21T09:33:42;100986.25;;;10.42;92.11
8653;BME280;4364;52.426;9.424;2023-03-21T09:36:10;100982.47;;;10.43;91.64
8653;BME280;4364;52.426;9.424;2023-03-21T09:38:40;100983.00;;;10.40;90.53
8653;BME280;4364;52.426;9.424;2023-03-21T09:41:19;100982.72;;;10.36;91.12
8653;BME280;4364;52.426;9.424;2023-03-21T09:44:10;100994.06;;;10.28;92.08
8653;BME280;4364;52.426;9.424;2023-03-21T09:46:50;100986.19;;;10.31;93.33
8653;BME280;4364;52.426;9.424;2023-03-21T09:49:22;100980.75;;;10.21;94.23
8653;BME280;4364;52.426;9.424;2023-03-21T09:51:51;100981.22;;;10.02;96.13
8653;BME280;4364;52.426;9.424;2023-03-21T09:54:30;100980.13;;;10.04;96.16
8653;BME280;4364;52.426;9.424;2023-03-21T09:59:48;100980.59;;;9.85;98.17
8653;BME280;4364;52.426;9.424;2023-03-21T10:04:48;100979.03;;;9.94;97.65
8653;BME280;4364;52.426;9.424;2023-03-21T10:07:14;100976.59;;;9.98;97.97
8653;BME280;4364;52.426;9.424;2023-03-21T10:09:45;100977.16;;;10.05;97.35
8653;BME280;4364;52.426;9.424;2023-03-21T10:12:19;100975.00;;;10.12;95.64
8653;BME280;4364;52.426;9.424;2023-03-21T10:14:51;100975.56;;;10.19;96.06
8653;BME280;4364;52.426;9.424;2023-03-21T10:17:31;100973.13;;;10.18;94.61
8653;BME280;4364;52.426;9.424;2023-03-21T10:20:22;100967.69;;;10.23;94.58
8653;BME280;4364;52.426;9.424;2023-03-21T10:22:51;100968.75;;;10.17;93.07
8653;BME280;4364;52.426;9.424;2023-03-21T10:25:45;100969.63;;;10.28;91.89
8653;BME280;4364;52.426;9.424;2023-03-21T10:28:20;100965.31;;;10.42;91.08
8653;BME280;4364;52.426;9.424;2023-03-21T10:30:52;100966.94;;;10.43;89.75
8653;BME280;4364;52.426;9.424;2023-03-21T10:33:24;100960.69;;;10.37;89.89
8653;BME280;4364;52.426;9.424;2023-03-21T10:35:58;100958.53;;;10.45;89.24
8653;BME280;4364;52.426;9.424;2023-03-21T10:38:27;100963.97;;;10.45;89.10
8653;BME280;4364;52.426;9.424;2023-03-21T10:40:54;100966.66;;;10.34;89.90
8653;BME280;4364;52.426;9.424;2023-03-21T10:45:55;100958.78;;;10.43;90.51
8653;BME280;4364;52.426;9.424;2023-03-21T10:48:23;100960.72;;;10.43;92.46
8653;BME280;4364;52.426;9.424;2023-03-21T10:50:52;100959.88;;;10.37;93.78
8653;BME280;4364;52.426;9.424;2023-03-21T10:53:33;100953.03;;;10.29;95.55
8653;BME280;4364;52.426;9.424;2023-03-21T10:56:06;100953.56;;;10.31;96.22
8653;BME280;4364;52.426;9.424;2023-03-21T10:58:38;100952.53;;;10.32;97.38
8653;BME280;4364;52.426;9.424;2023-03-21T11:01:11;100955.25;;;10.37;98.24
8653;BME280;4364;52.426;9.424;2023-03-21T11:03:44;100943.81;;;10.41;98.80
8653;BME280;4364;52.426;9.424;2023-03-21T11:08:54;100943.81;;;10.35;98.63
8653;BME280;4364;52.426;9.424;2023-03-21T11:12:09;100941.06;;;10.25;98.14
8653;BME280;4364;52.426;9.424;2023-03-21T11:14:43;100940.50;;;10.18;98.91
8653;BME280;4364;52.426;9.424;2023-03-21T11:19:57;100944.63;;;10.26;99.70
8653;BME280;4364;52.426;9.424;2023-03-21T11:22:28;100941.09;;;10.35;100.00
8653;BME280;4364;52.426;9.424;2023-03-21T11:24:58;100937.84;;;10.38;99.92
8653;BME280;4364;52.426;9.424;2023-03-21T11:27:27;100934.06;;;10.45;98.73
8653;BME280;4364;52.426;9.424;2023-03-21T11:29:56;100928.63;;;10.34;99.08
8653;BME280;4364;52.426;9.424;2023-03-21T11:32:36;100933.19;;;10.29;100.00
8653;BME280;4364;52.426;9.424;2023-03-21T11:35:14;100933.78;;;10.36;99.60
8653;BME280;4364;52.426;9.424;2023-03-21T11:37:48;100936.25;;;10.43;98.74
8653;BME280;4364;52.426;9.424;2023-03-21T11:40:22;100928.34;;;10.36;98.68
8653;BME280;4364;52.426;9.424;2023-03-21T11:42:57;100928.09;;;10.43;99.27
8653;BME280;4364;52.426;9.424;2023-03-21T11:45:27;100923.19;;;10.40;98.19
8653;BME280;4364;52.426;9.424;2023-03-21T11:47:55;100926.44;;;10.42;98.08
8653;BME280;4364;52.426;9.424;2023-03-21T11:50:26;100921.81;;;10.42;97.66
8653;BME280;4364;52.426;9.424;2023-03-21T11:55:56;100924.78;;;10.41;98.08
8653;BME280;4364;52.426;9.424;2023-03-21T12:01:32;100912.31;;;10.55;98.60
8653;BME280;4364;52.426;9.424;2023-03-21T12:07:22;100908.50;;;10.61;100.00
8653;BME280;4364;52.426;9.424;2023-03-21T12:15:56;100899.53;;;10.66;98.76
8653;BME280;4364;52.426;9.424;2023-03-21T12:18:37;100897.09;;;10.64;100.00
8653;BME280;4364;52.426;9.424;2023-03-21T12:21:19;100888.66;;;10.71;100.00
8653;BME280;4364;52.426;9.424;2023-03-21T12:24:01;100885.38;;;10.79;100.00
8653;BME280;4364;52.426;9.424;2023-03-21T12:26:39;100888.38;;;10.78;100.00
8653;BME280;4364;52.426;9.424;2023-03-21T12:29:22;100876.13;;;10.75;100.00
8653;BME280;4364;52.426;9.424;2023-03-21T12:32:24;100879.09;;;10.89;100.00
8653;BME280;4364;52.426;9.424;2023-03-21T12:45:54;100864.19;;;10.71;100.00
8653;BME280;4364;52.426;9.424;2023-03-21T12:48:36;100861.16;;;10.67;100.00
8653;BME280;4364;52.426;9.424;2023-03-21T12:51:10;100856.31;;;10.69;100.00
8653;BME280;4364;52.426;9.424;2023-03-21T12:53:47;100849.22;;;10.73;100.00
8653;BME280;4364;52.426;9.424;2023-03-21T12:56:29;100856.28;;;10.80;100.00
8653;BME280;4364;52.426;9.424;2023-03-21T12:59:02;100854.63;;;10.79;100.00
8653;BME280;4364;52.426;9.424;2023-03-21T13:01:33;100855.72;;;10.67;100.00
8653;BME280;4364;52.426;9.424;2023-03-21T13:04:15;100848.66;;;10.82;100.00
8653;BME280;4364;52.426;9.424;2023-03-21T13:06:52;100852.19;;;10.82;100.00
8653;BME280;4364;52.426;9.424;2023-03-21T13:09:30;100841.88;;;10.69;100.00
8653;BME280;4364;52.426;9.424;2023-03-21T13:15:13;100828.00;;;10.70;100.00
8653;BME280;4364;52.426;9.424;2023-03-21T13:17:57;100833.44;;;10.70;100.00
8653;BME280;4364;52.426;9.424;2023-03-21T13:20:39;100831.81;;;10.59;100.00
8653;BME280;4364;52.426;9.424;2023-03-21T13:23:09;100829.69;;;10.46;100.00
8653;BME280;4364;52.426;9.424;2023-03-21T13:25:43;100828.84;;;10.45;100.00
8653;BME280;4364;52.426;9.424;2023-03-21T13:28:20;100827.22;;;10.44;100.00
8653;BME280;4364;52.426;9.424;2023-03-21T13:30:48;100829.13;;;10.38;100.00
8653;BME280;4364;52.426;9.424;2023-03-21T13:33:21;100821.78;;;10.34;100.00
8653;BME280;4364;52.426;9.424;2023-03-21T13:35:59;100816.63;;;10.43;100.00
8653;BME280;4364;52.426;9.424;2023-03-21T13:38:35;100819.03;;;10.29;100.00
8653;BME280;4364;52.426;9.424;2023-03-21T13:41:08;100821.47;;;10.25;100.00
8653;BME280;4364;52.426;9.424;2023-03-21T13:43:42;100819.06;;;10.34;100.00
8653;BME280;4364;52.426;9.424;2023-03-21T13:46:10;100816.91;;;10.41;100.00
8653;BME280;4364;52.426;9.424;2023-03-21T13:54:18;100814.44;;;10.19;100.00
8653;BME280;4364;52.426;9.424;2023-03-21T14:04:28;100797.56;;;10.27;100.00
8653;BME280;4364;52.426;9.424;2023-03-21T14:07:24;100804.94;;;10.32;100.00
8653;BME280;4364;52.426;9.424;2023-03-21T14:09:53;100807.06;;;10.25;100.00
8653;BME280;4364;52.426;9.424;2023-03-21T14:12:24;100798.41;;;10.17;100.00
8653;BME280;4364;52.426;9.424;2023-03-21T14:14:58;100800.59;;;10.36;100.00
8653;BME280;4364;52.426;9.424;2023-03-21T14:17:35;100795.94;;;10.26;100.00
8653;BME280;4364;52.426;9.424;2023-03-21T14:22:38;100789.41;;;10.17;100.00
8653;BME280;4364;52.426;9.424;2023-03-21T14:25:10;100791.03;;;10.18;100.00
8653;BME280;4364;52.426;9.424;2023-03-21T14:27:41;100785.06;;;10.21;100.00
8653;BME280;4364;52.426;9.424;2023-03-21T14:30:11;100781.81;;;10.29;100.00
8653;BME280;4364;52.426;9.424;2023-03-21T14:32:45;100773.94;;;10.33;100.00
8653;BME280;4364;52.426;9.424;2023-03-21T14:35:13;100769.03;;;10.25;100.00
8653;BME280;4364;52.426;9.424;2023-03-21T14:37:44;100761.94;;;10.24;100.00
8653;BME280;4364;52.426;9.424;2023-03-21T14:40:23;100764.41;;;10.25;100.00
8653;BME280;4364;52.426;9.424;2023-03-21T14:42:51;100766.56;;;10.28;100.00
8653;BME280;4364;52.426;9.424;2023-03-21T14:45:29;100754.38;;;10.26;100.00
8653;BME280;4364;52.426;9.424;2023-03-21T14:48:09;100754.38;;;10.36;100.00
8653;BME280;4364;52.426;9.424;2023-03-21T14:50:44;100746.47;;;10.50;100.00
8653;BME280;4364;52.426;9.424;2023-03-21T14:53:15;100744.00;;;10.53;100.00
8653;BME280;4364;52.426;9.424;2023-03-21T14:55:56;100739.38;;;10.49;100.00
8653;BME280;4364;52.426;9.424;2023-03-21T14:58:24;100733.41;;;10.47;100.00
8653;BME280;4364;52.426;9.424;2023-03-21T15:00:53;100740.75;;;10.51;100.00